createdAt,value
2023-04-28T00:05:04.581Z,12.60
2023-04-28T00:13:24.812Z,12.80
2023-04-28T00:17:25.969Z,12.80
2023-04-28T00:30:04.862Z,13.00
2023-04-28T00:34:05.884Z,13.10
2023-04-28T00:38:06.714Z,13.10
2023-04-28T00:46:26.793Z,13.10
2023-04-28T00:50:28.185Z,13.10
2023-04-28T00:58:48.177Z,13.10
2023-04-28T01:02:49.342Z,12.90
2023-04-28T01:19:47.520Z,12.20
2023-04-28T01:23:49.091Z,12.00
2023-04-28T01:27:49.904Z,12.00
2023-04-28T01:31:50.991Z,12.00
2023-04-28T01:35:51.877Z,12.10
2023-04-28T01:39:53.051Z,12.20
2023-04-28T01:43:00.121Z,12.10
2023-04-28T01:46:42.553Z,12.30
2023-04-28T01:49:50.028Z,12.40
2023-04-28T01:52:36.687Z,12.40
2023-04-28T01:56:00.118Z,12.50
2023-04-28T01:59:43.234Z,12.50
2023-04-28T02:03:44.715Z,12.60
2023-04-28T02:07:27.048Z,12.70
2023-04-28T02:10:13.689Z,12.50
2023-04-28T02:13:18.925Z,12.40
2023-04-28T02:17:03.057Z,12.60
2023-04-28T02:20:34.156Z,12.50
2023-04-28T02:24:17.708Z,12.60
2023-04-28T02:28:18.788Z,12.60
2023-04-28T02:31:41.978Z,12.50
2023-04-28T02:35:06.061Z,12.40
2023-04-28T02:38:31.627Z,12.40
2023-04-28T02:42:13.712Z,12.20
2023-04-28T02:45:55.700Z,12.20
2023-04-28T02:49:20.028Z,12.20
2023-04-28T02:52:25.492Z,12.20
2023-04-28T02:55:50.155Z,12.30
2023-04-28T02:59:14.635Z,12.50
2023-04-28T03:02:38.721Z,12.70
2023-04-28T03:06:39.570Z,12.80
2023-04-28T03:10:02.694Z,12.90
2023-04-28T03:13:45.028Z,12.70
2023-04-28T03:17:46.131Z,12.70
2023-04-28T03:21:29.463Z,12.80
2023-04-28T03:24:52.722Z,12.70
2023-04-28T03:28:15.841Z,12.70
2023-04-28T03:31:40.166Z,12.80
2023-04-28T03:35:04.432Z,12.90
2023-04-28T03:38:11.609Z,12.90
2023-04-28T03:41:53.686Z,12.80
2023-04-28T03:45:18.164Z,12.90
2023-04-28T03:48:23.937Z,12.90
2023-04-28T03:51:47.871Z,13.00
2023-04-28T03:54:54.899Z,12.90
2023-04-28T03:58:36.494Z,12.80
2023-04-28T04:01:41.789Z,12.80
2023-04-28T04:04:47.380Z,12.70
2023-04-28T04:08:10.961Z,12.60
2023-04-28T04:11:18.002Z,12.60
2023-04-28T04:14:59.635Z,12.60
2023-04-28T04:18:23.856Z,12.50
2023-04-28T04:21:48.791Z,12.50
2023-04-28T04:25:11.514Z,12.50
2023-04-28T04:28:37.024Z,12.50
2023-04-28T04:32:02.587Z,12.40
2023-04-28T04:35:25.948Z,12.30
2023-04-28T04:39:08.103Z,12.00
2023-04-28T04:42:24.132Z,12.00
2023-04-28T04:45:33.849Z,11.70
2023-04-28T04:49:15.613Z,11.70
2023-04-28T04:52:38.691Z,11.80
2023-04-28T04:55:43.266Z,11.90
2023-04-28T04:58:48.577Z,12.00
2023-04-28T05:02:14.019Z,12.10
2023-04-28T05:05:37.464Z,12.30
2023-04-28T05:09:19.464Z,12.60
2023-04-28T05:12:25.310Z,12.60
2023-04-28T05:16:26.038Z,12.70
2023-04-28T05:19:51.579Z,12.80
2023-04-28T05:23:34.640Z,12.90
2023-04-28T05:26:39.155Z,12.90
2023-04-28T05:30:40.498Z,13.00
2023-04-28T05:34:03.362Z,13.10
2023-04-28T05:37:27.839Z,13.20
2023-04-28T05:40:32.298Z,13.30
2023-04-28T05:43:36.301Z,13.30
2023-04-28T05:47:00.505Z,13.10
2023-04-28T05:50:43.206Z,12.60
2023-04-28T05:53:50.206Z,12.50
2023-04-28T05:57:13.532Z,12.40
2023-04-28T06:00:55.531Z,12.30
2023-04-28T06:04:00.709Z,12.30
2023-04-28T06:07:43.375Z,12.30
2023-04-28T06:11:07.581Z,12.30
2023-04-28T06:14:49.986Z,12.40
2023-04-28T06:18:32.148Z,12.50
2023-04-28T06:21:38.046Z,12.50
2023-04-28T06:24:44.032Z,12.60
2023-04-28T06:28:08.632Z,12.80
2023-04-28T06:31:50.966Z,12.90
2023-04-28T06:35:14.868Z,13.10
2023-04-28T06:38:01.732Z,13.20
2023-04-28T06:41:07.014Z,13.10
2023-04-28T06:44:49.781Z,13.10
2023-04-28T06:48:13.977Z,13.10
2023-04-28T06:51:57.308Z,13.10
2023-04-28T06:55:01.297Z,13.10
2023-04-28T06:58:43.320Z,13.20
2023-04-28T07:01:48.813Z,13.00
2023-04-28T07:04:35.576Z,12.90
2023-04-28T07:08:18.845Z,13.00
2023-04-28T07:11:41.778Z,13.00
2023-04-28T07:15:04.729Z,12.90
2023-04-28T07:19:05.535Z,12.80
2023-04-28T07:22:10.981Z,12.70
2023-04-28T07:25:17.981Z,12.70
2023-04-28T07:28:40.774Z,12.60
2023-04-28T07:31:44.740Z,12.40
2023-04-28T07:35:07.941Z,12.20
2023-04-28T07:38:12.487Z,12.30
2023-04-28T07:42:13.634Z,12.20
2023-04-28T07:45:39.251Z,12.20
2023-04-28T07:48:44.307Z,12.10
2023-04-28T07:52:27.404Z,12.00
2023-04-28T07:55:49.905Z,11.80
2023-04-28T07:59:14.096Z,11.90
2023-04-28T08:02:19.347Z,12.00
2023-04-28T08:06:01.442Z,11.90
2023-04-28T08:09:05.524Z,11.80
2023-04-28T08:12:47.360Z,11.60
2023-04-28T08:16:10.405Z,11.80
2023-04-28T08:19:36.145Z,12.00
2023-04-28T08:22:41.477Z,12.20
2023-04-28T08:26:04.576Z,12.10
2023-04-28T08:29:09.869Z,12.30
2023-04-28T08:32:33.736Z,12.40
2023-04-28T08:36:15.708Z,12.40
2023-04-28T08:39:05.143Z,12.50
2023-04-28T08:42:09.258Z,12.60
2023-04-28T08:45:59.075Z,12.70
2023-04-28T08:49:43.035Z,12.80
2023-04-28T08:52:49.498Z,12.90
2023-04-28T08:56:14.648Z,12.90
2023-04-28T08:59:20.566Z,12.70
2023-04-28T09:02:44.648Z,12.80
2023-04-28T09:06:28.275Z,12.70
2023-04-28T09:09:22.925Z,12.70
2023-04-28T09:13:15.323Z,12.60
2023-04-28T09:17:16.648Z,12.60
2023-04-28T09:20:23.442Z,12.40
2023-04-28T09:23:47.418Z,12.60
2023-04-28T09:27:29.582Z,12.80
2023-04-28T09:30:18.026Z,13.00
2023-04-28T09:33:57.303Z,13.40
2023-04-28T09:37:33.872Z,13.70
2023-04-28T09:40:53.798Z,14.10
2023-04-28T09:44:28.245Z,14.30
2023-04-28T09:47:52.463Z,14.50
2023-04-28T09:51:36.010Z,14.70
2023-04-28T09:54:41.803Z,14.90
2023-04-28T09:58:07.321Z,14.90
2023-04-28T10:01:30.063Z,15.10
2023-04-28T10:04:55.271Z,15.10
2023-04-28T10:08:21.732Z,15.20
2023-04-28T10:11:10.030Z,15.30
2023-04-28T10:14:51.838Z,15.50
2023-04-28T10:18:14.846Z,15.70
2023-04-28T10:21:59.297Z,16.00
2023-04-28T10:25:21.087Z,16.20
2023-04-28T10:29:22.069Z,16.10
2023-04-28T10:32:58.858Z,16.10
2023-04-28T10:36:40.792Z,16.20
2023-04-28T10:40:22.804Z,16.10
2023-04-28T10:44:12.547Z,16.00
2023-04-28T10:47:35.773Z,16.00
2023-04-28T10:51:16.711Z,16.10
2023-04-28T10:54:37.331Z,16.10
2023-04-28T10:58:01.514Z,16.10
2023-04-28T11:01:27.203Z,16.30
2023-04-28T11:05:10.714Z,16.40
2023-04-28T11:08:48.475Z,16.50
2023-04-28T11:12:11.358Z,16.40
2023-04-28T11:15:54.969Z,16.30
2023-04-28T11:19:12.587Z,16.30
2023-04-28T11:22:54.427Z,16.30
2023-04-28T11:26:55.513Z,16.30
2023-04-28T11:30:19.762Z,16.30
2023-04-28T11:33:24.768Z,16.30
2023-04-28T11:36:41.561Z,16.40
2023-04-28T11:39:47.190Z,16.50
2023-04-28T11:43:33.814Z,16.80
2023-04-28T11:46:51.146Z,17.10
2023-04-28T11:49:56.980Z,17.10
2023-04-28T11:53:04.282Z,17.00
2023-04-28T11:56:09.492Z,16.70
2023-04-28T11:59:51.476Z,16.70
2023-04-28T12:02:57.750Z,16.70
2023-04-28T12:06:39.168Z,16.70
2023-04-28T12:09:45.090Z,16.70
2023-04-28T12:13:27.335Z,16.90
2023-04-28T12:16:51.708Z,17.00
2023-04-28T12:20:47.916Z,17.00
2023-04-28T12:23:35.617Z,16.90
2023-04-28T12:27:17.263Z,17.00
2023-04-28T12:31:00.503Z,17.00
2023-04-28T12:34:42.386Z,16.90
2023-04-28T12:38:24.080Z,17.10
2023-04-28T12:41:46.929Z,17.30
2023-04-28T12:45:10.877Z,17.50
2023-04-28T12:48:54.218Z,17.50
2023-04-28T12:52:17.290Z,17.50
2023-04-28T12:55:41.304Z,17.70
2023-04-28T12:59:23.060Z,17.60
2023-04-28T13:03:05.057Z,17.50
2023-04-28T13:06:29.313Z,17.80
2023-04-28T13:09:38.482Z,17.80
2023-04-28T13:13:01.821Z,17.80
2023-04-28T13:16:43.724Z,17.80
2023-04-28T13:19:49.018Z,17.70
2023-04-28T13:22:55.791Z,17.60
2023-04-28T13:25:59.694Z,17.60
2023-04-28T13:29:05.218Z,17.60
2023-04-28T13:32:11.040Z,17.60
2023-04-28T13:35:52.994Z,17.50
2023-04-28T13:39:35.882Z,17.50
2023-04-28T13:43:18.934Z,17.50
2023-04-28T13:47:00.463Z,17.20
2023-04-28T13:50:23.492Z,17.20
2023-04-28T13:53:47.792Z,17.20
2023-04-28T13:57:13.545Z,17.20
2023-04-28T14:00:21.331Z,17.30
2023-04-28T14:03:25.327Z,17.30
2023-04-28T14:06:50.404Z,17.40
2023-04-28T14:09:56.067Z,17.40
2023-04-28T14:13:56.473Z,17.30
2023-04-28T14:17:39.548Z,17.40
2023-04-28T14:21:22.373Z,17.60
2023-04-28T14:25:23.277Z,17.70
2023-04-28T14:28:29.030Z,17.60
2023-04-28T14:31:51.759Z,17.60
2023-04-28T14:35:33.572Z,17.50
2023-04-28T14:38:57.655Z,17.40
2023-04-28T14:42:58.687Z,17.60
2023-04-28T14:46:40.918Z,17.90
2023-04-28T14:50:23.683Z,18.00
2023-04-28T14:54:06.132Z,18.10
2023-04-28T14:56:54.472Z,18.20
2023-04-28T15:00:36.027Z,18.00
2023-04-28T15:03:22.901Z,18.00
2023-04-28T15:07:04.717Z,18.00
2023-04-28T15:10:46.498Z,18.20
2023-04-28T15:14:29.824Z,18.30
2023-04-28T15:18:11.570Z,18.20
2023-04-28T15:22:12.256Z,18.10
2023-04-28T15:25:35.248Z,18.00
2023-04-28T15:28:40.371Z,18.00
2023-04-28T15:31:46.948Z,17.90
2023-04-28T15:35:09.785Z,17.70
2023-04-28T15:38:32.741Z,17.80
2023-04-28T15:41:55.711Z,17.70
2023-04-28T15:45:38.801Z,17.70
2023-04-28T15:49:02.823Z,17.70
2023-04-28T15:52:44.818Z,17.60
2023-04-28T15:56:08.812Z,17.60
2023-04-28T15:59:50.749Z,17.60
2023-04-28T16:03:14.375Z,17.60
2023-04-28T16:06:38.334Z,17.60
2023-04-28T16:10:01.198Z,17.50
2023-04-28T16:13:25.107Z,17.50
2023-04-28T16:16:49.401Z,17.50
2023-04-28T16:20:12.263Z,17.70
2023-04-28T16:23:53.982Z,17.80
2023-04-28T16:27:01.373Z,17.70
2023-04-28T16:30:43.056Z,17.70
2023-04-28T16:33:48.572Z,17.60
2023-04-28T16:37:11.419Z,17.60
2023-04-28T16:40:35.797Z,17.60
2023-04-28T16:44:18.725Z,17.70
2023-04-28T16:47:43.798Z,17.70
2023-04-28T16:51:28.002Z,17.60
2023-04-28T16:54:33.044Z,17.60
2023-04-28T16:57:57.474Z,17.60
2023-04-28T17:01:38.960Z,17.60
2023-04-28T17:05:20.848Z,17.60
2023-04-28T17:08:27.782Z,17.50
2023-04-28T17:11:51.338Z,17.60
2023-04-28T17:15:14.314Z,17.60
2023-04-28T17:18:56.987Z,17.60
2023-04-28T17:22:40.200Z,17.60
2023-04-28T17:26:23.064Z,17.70
2023-04-28T17:29:29.809Z,17.50
2023-04-28T17:33:12.472Z,17.50
2023-04-28T17:36:34.986Z,17.50
2023-04-28T17:40:16.722Z,17.40
2023-04-28T17:43:39.615Z,17.40
2023-04-28T17:46:46.449Z,17.40
2023-04-28T17:50:47.134Z,17.40
2023-04-28T17:54:10.239Z,17.30
2023-04-28T17:57:34.568Z,17.30
2023-04-28T18:00:57.382Z,17.30
2023-04-28T18:04:40.577Z,17.20
2023-04-28T18:07:45.853Z,17.10
2023-04-28T18:10:51.156Z,17.10
2023-04-28T18:14:18.189Z,17.10
2023-04-28T18:17:42.518Z,17.10
2023-04-28T18:21:07.268Z,17.10
2023-04-28T18:23:53.978Z,17.00
2023-04-28T18:27:35.488Z,17.00
2023-04-28T18:30:39.751Z,16.90
2023-04-28T18:33:28.110Z,16.90
2023-04-28T18:36:33.615Z,16.80
2023-04-28T18:39:56.765Z,16.80
2023-04-28T18:43:00.717Z,16.70
2023-04-28T18:46:25.327Z,16.70
2023-04-28T18:49:48.494Z,16.70
2023-04-28T18:53:30.603Z,16.60
2023-04-28T18:56:37.288Z,16.60
2023-04-28T18:59:42.707Z,16.60
2023-04-28T19:02:29.547Z,16.60
2023-04-28T19:05:35.440Z,16.50
2023-04-28T19:08:59.621Z,16.50
2023-04-28T19:12:25.419Z,16.50
2023-04-28T19:16:10.281Z,16.50
2023-04-28T19:19:52.148Z,16.40
2023-04-28T19:23:52.758Z,16.40
2023-04-28T19:27:34.530Z,16.40
2023-04-28T19:31:16.537Z,16.40
2023-04-28T19:34:40.813Z,16.40
2023-04-28T19:37:27.860Z,16.40
2023-04-28T19:41:10.874Z,16.40
2023-04-28T19:44:15.784Z,16.40
2023-04-28T19:47:23.622Z,16.40
2023-04-28T19:50:12.048Z,16.40
2023-04-28T19:53:38.929Z,16.40
2023-04-28T19:57:39.585Z,16.40
2023-04-28T20:00:26.558Z,16.40
2023-04-28T20:04:09.387Z,16.50
2023-04-28T20:07:36.411Z,16.50
2023-04-28T20:11:19.577Z,16.50
2023-04-28T20:14:23.580Z,16.50
2023-04-28T20:17:28.810Z,16.50
2023-04-28T20:20:52.845Z,16.50
2023-04-28T20:24:17.609Z,16.60
2023-04-28T20:27:23.161Z,16.60
2023-04-28T20:31:04.963Z,16.60
2023-04-28T20:34:27.973Z,16.60
2023-04-28T20:37:32.028Z,16.60
2023-04-28T20:40:57.939Z,16.50
2023-04-28T20:44:39.538Z,16.40
2023-04-28T20:47:26.309Z,16.40
2023-04-28T20:51:27.353Z,16.30
2023-04-28T20:54:52.070Z,16.30
2023-04-28T20:57:58.797Z,16.30
2023-04-28T21:01:23.346Z,16.30
2023-04-28T21:04:47.531Z,16.30
2023-04-28T21:08:47.984Z,16.30
2023-04-28T21:11:52.204Z,16.30
2023-04-28T21:15:35.721Z,16.30
2023-04-28T21:18:40.936Z,16.20
2023-04-28T21:21:46.228Z,16.20
2023-04-28T21:24:50.352Z,16.20
2023-04-28T21:27:54.554Z,16.10
2023-04-28T21:31:01.565Z,16.10
2023-04-28T21:33:48.059Z,16.10
2023-04-28T21:37:10.763Z,16.20
2023-04-28T21:40:35.142Z,16.10
2023-04-28T21:44:18.189Z,16.10
2023-04-28T21:47:43.685Z,16.10
2023-04-28T21:51:08.987Z,16.10
2023-04-28T21:54:50.461Z,16.10
2023-04-28T21:57:58.783Z,16.10
2023-04-28T22:00:47.483Z,16.00
2023-04-28T22:03:52.111Z,16.00
2023-04-28T22:07:16.977Z,16.00
2023-04-28T22:10:41.287Z,16.00
2023-04-28T22:14:05.213Z,15.90
2023-04-28T22:17:10.620Z,15.80
2023-04-28T22:20:34.537Z,15.80
2023-04-28T22:23:21.034Z,15.80
2023-04-28T22:26:45.771Z,15.80
2023-04-28T22:30:09.855Z,15.80
2023-04-28T22:32:56.535Z,15.80
2023-04-28T22:35:43.393Z,15.80
2023-04-28T22:38:29.776Z,15.80
2023-04-28T22:41:16.535Z,15.70
2023-04-28T22:44:03.095Z,15.70
2023-04-28T22:46:50.808Z,15.70
2023-04-28T22:49:37.457Z,15.70
2023-04-28T22:52:24.474Z,15.70
2023-04-28T22:55:11.869Z,15.60
2023-04-28T22:57:58.231Z,15.60
2023-04-28T23:00:45.150Z,15.60
2023-04-28T23:03:33.717Z,15.60
2023-04-28T23:06:20.549Z,15.60
2023-04-28T23:09:07.096Z,15.60
2023-04-28T23:11:53.628Z,15.50
2023-04-28T23:14:39.970Z,15.60
2023-04-28T23:17:27.083Z,15.60
2023-04-28T23:20:15.704Z,15.60
2023-04-28T23:23:02.401Z,15.50
2023-04-28T23:25:48.927Z,15.50
2023-04-28T23:28:35.885Z,15.50
2023-04-28T23:31:22.352Z,15.50
2023-04-28T23:34:09.548Z,15.50
2023-04-28T23:36:58.116Z,15.40
2023-04-28T23:39:44.582Z,15.40
2023-04-28T23:42:31.328Z,15.40
2023-04-28T23:45:18.452Z,15.40
2023-04-28T23:48:04.847Z,15.40
2023-04-28T23:50:51.340Z,15.40
2023-04-28T23:53:39.361Z,15.40
2023-04-28T23:56:26.737Z,15.40
2023-04-28T23:59:13.220Z,15.40
